sensor_id;sensor_type;location;lat;lon;timestamp;P1;durP1;ratioP1;P2;durP2;ratioP2
49051;SDS011;34866;48.670;18.260;2024-02-26T00:01:44;17.25;;;7.95;;
49051;SDS011;34866;48.670;18.260;2024-02-26T00:04:11;12.02;;;7.07;;
49051;SDS011;34866;48.670;18.260;2024-02-26T00:06:38;17.13;;;7.13;;
49051;SDS011;34866;48.670;18.260;2024-02-26T00:09:06;11.07;;;6.63;;
49051;SDS011;34866;48.670;18.260;2024-02-26T00:11:37;22.90;;;7.32;;
49051;SDS011;34866;48.670;18.260;2024-02-26T00:14:03;13.82;;;6.05;;
49051;SDS011;34866;48.670;18.260;2024-02-26T00:16:29;14.20;;;6.88;;
49051;SDS011;34866;48.670;18.260;2024-02-26T00:18:55;14.82;;;6.85;;
49051;SDS011;34866;48.670;18.260;2024-02-26T00:21:21;17.63;;;6.82;;
49051;SDS011;34866;48.670;18.260;2024-02-26T00:23:47;18.10;;;7.32;;
49051;SDS011;34866;48.670;18.260;2024-02-26T00:26:15;12.20;;;6.50;;
49051;SDS011;34866;48.670;18.260;2024-02-26T00:28:41;22.75;;;6.45;;
49051;SDS011;34866;48.670;18.260;2024-02-26T00:31:06;15.13;;;5.72;;
49051;SDS011;34866;48.670;18.260;2024-02-26T00:33:32;13.80;;;6.30;;
49051;SDS011;34866;48.670;18.260;2024-02-26T00:35:58;13.82;;;5.93;;
49051;SDS011;34866;48.670;18.260;2024-02-26T00:38:24;10.45;;;4.93;;
49051;SDS011;34866;48.670;18.260;2024-02-26T00:40:50;10.30;;;5.07;;
49051;SDS011;34866;48.670;18.260;2024-02-26T00:43:17;13.55;;;6.55;;
49051;SDS011;34866;48.670;18.260;2024-02-26T00:45:44;13.68;;;5.28;;
49051;SDS011;34866;48.670;18.260;2024-02-26T00:48:11;12.10;;;5.57;;
49051;SDS011;34866;48.670;18.260;2024-02-26T00:50:39;12.57;;;5.85;;
49051;SDS011;34866;48.670;18.260;2024-02-26T00:53:05;11.68;;;5.82;;
49051;SDS011;34866;48.670;18.260;2024-02-26T00:55:31;12.43;;;6.22;;
49051;SDS011;34866;48.670;18.260;2024-02-26T00:57:57;14.77;;;5.85;;
49051;SDS011;34866;48.670;18.260;2024-02-26T01:00:23;14.48;;;6.75;;
49051;SDS011;34866;48.670;18.260;2024-02-26T01:02:49;13.95;;;6.32;;
49051;SDS011;34866;48.670;18.260;2024-02-26T01:05:15;12.90;;;6.47;;
49051;SDS011;34866;48.670;18.260;2024-02-26T01:07:41;12.65;;;6.72;;
49051;SDS011;34866;48.670;18.260;2024-02-26T01:10:08;14.50;;;6.05;;
49051;SDS011;34866;48.670;18.260;2024-02-26T01:12:34;14.82;;;6.72;;
49051;SDS011;34866;48.670;18.260;2024-02-26T01:15:03;13.98;;;6.65;;
49051;SDS011;34866;48.670;18.260;2024-02-26T01:17:29;11.20;;;5.85;;
49051;SDS011;34866;48.670;18.260;2024-02-26T01:19:55;10.55;;;6.00;;
49051;SDS011;34866;48.670;18.260;2024-02-26T01:22:22;12.18;;;5.80;;
49051;SDS011;34866;48.670;18.260;2024-02-26T01:24:48;11.18;;;6.32;;
49051;SDS011;34866;48.670;18.260;2024-02-26T01:27:14;14.90;;;6.00;;
49051;SDS011;34866;48.670;18.260;2024-02-26T01:29:44;11.27;;;6.28;;
49051;SDS011;34866;48.670;18.260;2024-02-26T01:32:10;10.35;;;5.35;;
49051;SDS011;34866;48.670;18.260;2024-02-26T01:34:36;14.73;;;6.15;;
49051;SDS011;34866;48.670;18.260;2024-02-26T01:37:02;15.20;;;6.80;;
49051;SDS011;34866;48.670;18.260;2024-02-26T01:39:28;9.55;;;5.78;;
49051;SDS011;34866;48.670;18.260;2024-02-26T01:41:55;11.85;;;6.28;;
49051;SDS011;34866;48.670;18.260;2024-02-26T01:44:21;10.98;;;6.35;;
49051;SDS011;34866;48.670;18.260;2024-02-26T01:46:47;16.88;;;6.57;;
49051;SDS011;34866;48.670;18.260;2024-02-26T01:49:14;11.93;;;6.10;;
49051;SDS011;34866;48.670;18.260;2024-02-26T01:51:40;12.80;;;6.38;;
49051;SDS011;34866;48.670;18.260;2024-02-26T01:54:08;9.13;;;5.55;;
49051;SDS011;34866;48.670;18.260;2024-02-26T01:56:36;9.65;;;4.85;;
49051;SDS011;34866;48.670;18.260;2024-02-26T01:59:05;11.45;;;5.57;;
49051;SDS011;34866;48.670;18.260;2024-02-26T02:01:31;11.75;;;6.85;;
49051;SDS011;34866;48.670;18.260;2024-02-26T02:03:59;12.05;;;6.13;;
49051;SDS011;34866;48.670;18.260;2024-02-26T02:06:25;11.20;;;5.80;;
49051;SDS011;34866;48.670;18.260;2024-02-26T02:08:54;13.43;;;7.50;;
49051;SDS011;34866;48.670;18.260;2024-02-26T02:11:20;12.27;;;5.45;;
49051;SDS011;34866;48.670;18.260;2024-02-26T02:13:46;12.45;;;6.72;;
49051;SDS011;34866;48.670;18.260;2024-02-26T02:16:12;17.83;;;6.25;;
49051;SDS011;34866;48.670;18.260;2024-02-26T02:18:38;12.18;;;5.70;;
49051;SDS011;34866;48.670;18.260;2024-02-26T02:21:05;10.52;;;5.85;;
49051;SDS011;34866;48.670;18.260;2024-02-26T02:23:30;11.23;;;6.57;;
49051;SDS011;34866;48.670;18.260;2024-02-26T02:25:56;26.75;;;6.45;;
49051;SDS011;34866;48.670;18.260;2024-02-26T02:28:23;13.73;;;6.32;;
49051;SDS011;34866;48.670;18.260;2024-02-26T02:30:50;9.70;;;5.60;;
49051;SDS011;34866;48.670;18.260;2024-02-26T02:33:16;13.07;;;6.25;;
49051;SDS011;34866;48.670;18.260;2024-02-26T02:35:42;11.57;;;5.78;;
49051;SDS011;34866;48.670;18.260;2024-02-26T02:38:08;9.93;;;6.25;;
49051;SDS011;34866;48.670;18.260;2024-02-26T02:40:34;11.90;;;5.68;;
49051;SDS011;34866;48.670;18.260;2024-02-26T02:43:00;8.57;;;4.70;;
49051;SDS011;34866;48.670;18.260;2024-02-26T02:45:27;9.95;;;4.95;;
49051;SDS011;34866;48.670;18.260;2024-02-26T02:47:53;13.02;;;6.00;;
49051;SDS011;34866;48.670;18.260;2024-02-26T02:50:19;8.40;;;5.50;;
49051;SDS011;34866;48.670;18.260;2024-02-26T02:52:45;11.25;;;5.43;;
49051;SDS011;34866;48.670;18.260;2024-02-26T02:55:13;15.40;;;6.13;;
49051;SDS011;34866;48.670;18.260;2024-02-26T02:57:39;8.70;;;5.32;;
49051;SDS011;34866;48.670;18.260;2024-02-26T03:00:08;10.98;;;5.53;;
49051;SDS011;34866;48.670;18.260;2024-02-26T03:02:36;9.90;;;5.00;;
49051;SDS011;34866;48.670;18.260;2024-02-26T03:05:05;11.82;;;4.75;;
49051;SDS011;34866;48.670;18.260;2024-02-26T03:07:31;6.95;;;4.45;;
49051;SDS011;34866;48.670;18.260;2024-02-26T03:09:57;11.23;;;5.32;;
49051;SDS011;34866;48.670;18.260;2024-02-26T03:12:23;11.02;;;4.95;;
49051;SDS011;34866;48.670;18.260;2024-02-26T03:14:49;16.00;;;5.35;;
49051;SDS011;34866;48.670;18.260;2024-02-26T03:17:16;29.25;;;5.35;;
49051;SDS011;34866;48.670;18.260;2024-02-26T03:19:43;10.98;;;5.15;;
49051;SDS011;34866;48.670;18.260;2024-02-26T03:22:12;8.20;;;4.80;;
49051;SDS011;34866;48.670;18.260;2024-02-26T03:24:38;11.02;;;5.43;;
49051;SDS011;34866;48.670;18.260;2024-02-26T03:27:04;14.45;;;5.57;;
49051;SDS011;34866;48.670;18.260;2024-02-26T03:29:34;9.00;;;5.45;;
49051;SDS011;34866;48.670;18.260;2024-02-26T03:32:03;8.65;;;4.88;;
49051;SDS011;34866;48.670;18.260;2024-02-26T03:34:29;8.35;;;4.68;;
49051;SDS011;34866;48.670;18.260;2024-02-26T03:36:56;11.00;;;5.97;;
49051;SDS011;34866;48.670;18.260;2024-02-26T03:39:23;10.40;;;5.45;;
49051;SDS011;34866;48.670;18.260;2024-02-26T03:41:49;9.68;;;5.00;;
49051;SDS011;34866;48.670;18.260;2024-02-26T03:44:15;13.43;;;6.68;;
49051;SDS011;34866;48.670;18.260;2024-02-26T03:46:43;15.60;;;4.88;;
49051;SDS011;34866;48.670;18.260;2024-02-26T03:49:09;9.52;;;4.93;;
49051;SDS011;34866;48.670;18.260;2024-02-26T03:51:36;13.40;;;5.22;;
49051;SDS011;34866;48.670;18.260;2024-02-26T03:54:02;10.77;;;5.90;;
49051;SDS011;34866;48.670;18.260;2024-02-26T03:56:28;9.40;;;5.38;;
49051;SDS011;34866;48.670;18.260;2024-02-26T03:58:54;9.52;;;4.75;;
49051;SDS011;34866;48.670;18.260;2024-02-26T04:01:21;10.15;;;4.43;;
49051;SDS011;34866;48.670;18.260;2024-02-26T04:03:47;7.95;;;4.68;;
49051;SDS011;34866;48.670;18.260;2024-02-26T04:06:13;9.13;;;5.25;;
49051;SDS011;34866;48.670;18.260;2024-02-26T04:08:39;8.70;;;5.32;;
49051;SDS011;34866;48.670;18.260;2024-02-26T04:11:05;8.38;;;4.32;;
49051;SDS011;34866;48.670;18.260;2024-02-26T04:13:35;6.70;;;4.15;;
49051;SDS011;34866;48.670;18.260;2024-02-26T04:16:03;8.25;;;4.18;;
49051;SDS011;34866;48.670;18.260;2024-02-26T04:18:29;8.98;;;4.45;;
49051;SDS011;34866;48.670;18.260;2024-02-26T04:20:55;14.93;;;4.65;;
49051;SDS011;34866;48.670;18.260;2024-02-26T04:23:22;9.73;;;3.40;;
49051;SDS011;34866;48.670;18.260;2024-02-26T04:25:48;7.57;;;4.53;;
49051;SDS011;34866;48.670;18.260;2024-02-26T04:28:14;6.13;;;3.67;;
49051;SDS011;34866;48.670;18.260;2024-02-26T04:30:40;9.60;;;4.65;;
49051;SDS011;34866;48.670;18.260;2024-02-26T04:33:06;8.90;;;4.93;;
49051;SDS011;34866;48.670;18.260;2024-02-26T04:35:32;9.18;;;4.07;;
49051;SDS011;34866;48.670;18.260;2024-02-26T04:38:00;9.05;;;4.28;;
49051;SDS011;34866;48.670;18.260;2024-02-26T04:40:26;8.25;;;3.95;;
49051;SDS011;34866;48.670;18.260;2024-02-26T04:42:52;6.35;;;4.10;;
49051;SDS011;34866;48.670;18.260;2024-02-26T04:45:18;10.13;;;4.30;;
49051;SDS011;34866;48.670;18.260;2024-02-26T04:47:44;7.07;;;4.18;;
49051;SDS011;34866;48.670;18.260;2024-02-26T04:50:10;7.45;;;4.57;;
49051;SDS011;34866;48.670;18.260;2024-02-26T04:52:36;7.00;;;4.15;;
49051;SDS011;34866;48.670;18.260;2024-02-26T04:55:04;8.65;;;4.50;;
49051;SDS011;34866;48.670;18.260;2024-02-26T04:57:30;10.65;;;4.80;;
49051;SDS011;34866;48.670;18.260;2024-02-26T04:59:56;9.48;;;4.10;;
49051;SDS011;34866;48.670;18.260;2024-02-26T05:02:22;9.93;;;4.80;;
49051;SDS011;34866;48.670;18.260;2024-02-26T05:04:49;10.60;;;4.78;;
49051;SDS011;34866;48.670;18.260;2024-02-26T05:07:15;10.18;;;5.35;;
49051;SDS011;34866;48.670;18.260;2024-02-26T05:09:44;7.80;;;3.85;;
49051;SDS011;34866;48.670;18.260;2024-02-26T05:12:10;9.25;;;4.25;;
49051;SDS011;34866;48.670;18.260;2024-02-26T05:14:36;9.80;;;5.22;;
49051;SDS011;34866;48.670;18.260;2024-02-26T05:17:04;11.88;;;4.60;;
49051;SDS011;34866;48.670;18.260;2024-02-26T05:19:31;10.18;;;4.60;;
49051;SDS011;34866;48.670;18.260;2024-02-26T05:21:57;8.25;;;4.45;;
49051;SDS011;34866;48.670;18.260;2024-02-26T05:24:23;8.02;;;4.40;;
49051;SDS011;34866;48.670;18.260;2024-02-26T05:26:49;9.02;;;5.10;;
49051;SDS011;34866;48.670;18.260;2024-02-26T05:29:15;8.95;;;4.47;;
49051;SDS011;34866;48.670;18.260;2024-02-26T05:31:44;7.20;;;4.22;;
49051;SDS011;34866;48.670;18.260;2024-02-26T05:34:10;8.93;;;5.00;;
49051;SDS011;34866;48.670;18.260;2024-02-26T05:36:36;16.27;;;6.07;;
49051;SDS011;34866;48.670;18.260;2024-02-26T05:39:03;9.25;;;4.72;;
49051;SDS011;34866;48.670;18.260;2024-02-26T05:41:29;12.57;;;5.78;;
49051;SDS011;34866;48.670;18.260;2024-02-26T05:43:55;11.73;;;5.90;;
49051;SDS011;34866;48.670;18.260;2024-02-26T05:46:21;14.30;;;7.20;;
49051;SDS011;34866;48.670;18.260;2024-02-26T05:48:48;12.25;;;6.53;;
49051;SDS011;34866;48.670;18.260;2024-02-26T05:51:14;15.23;;;6.03;;
49051;SDS011;34866;48.670;18.260;2024-02-26T05:53:41;16.13;;;6.97;;
49051;SDS011;34866;48.670;18.260;2024-02-26T05:56:07;11.73;;;5.63;;
49051;SDS011;34866;48.670;18.260;2024-02-26T05:58:33;15.68;;;6.68;;
49051;SDS011;34866;48.670;18.260;2024-02-26T06:00:59;13.00;;;6.03;;
49051;SDS011;34866;48.670;18.260;2024-02-26T06:03:25;11.52;;;5.72;;
49051;SDS011;34866;48.670;18.260;2024-02-26T06:05:53;12.70;;;6.47;;
49051;SDS011;34866;48.670;18.260;2024-02-26T06:08:19;12.55;;;7.25;;
49051;SDS011;34866;48.670;18.260;2024-02-26T06:10:45;13.27;;;7.07;;
49051;SDS011;34866;48.670;18.260;2024-02-26T06:13:11;14.00;;;6.32;;
49051;SDS011;34866;48.670;18.260;2024-02-26T06:15:37;10.85;;;6.38;;
49051;SDS011;34866;48.670;18.260;2024-02-26T06:18:04;10.23;;;4.82;;
49051;SDS011;34866;48.670;18.260;2024-02-26T06:20:30;12.70;;;6.05;;
49051;SDS011;34866;48.670;18.260;2024-02-26T06:22:56;11.93;;;5.25;;
49051;SDS011;34866;48.670;18.260;2024-02-26T06:25:22;12.57;;;6.93;;
49051;SDS011;34866;48.670;18.260;2024-02-26T06:27:49;11.05;;;5.50;;
49051;SDS011;34866;48.670;18.260;2024-02-26T06:30:15;11.07;;;5.88;;
49051;SDS011;34866;48.670;18.260;2024-02-26T06:32:41;24.10;;;7.25;;
49051;SDS011;34866;48.670;18.260;2024-02-26T06:35:07;11.23;;;6.65;;
49051;SDS011;34866;48.670;18.260;2024-02-26T06:37:35;13.27;;;5.88;;
49051;SDS011;34866;48.670;18.260;2024-02-26T06:40:01;12.35;;;6.15;;
49051;SDS011;34866;48.670;18.260;2024-02-26T06:42:31;11.00;;;5.88;;
49051;SDS011;34866;48.670;18.260;2024-02-26T06:44:57;15.57;;;6.97;;
49051;SDS011;34866;48.670;18.260;2024-02-26T06:47:23;16.75;;;9.45;;
49051;SDS011;34866;48.670;18.260;2024-02-26T06:49:51;18.85;;;8.60;;
49051;SDS011;34866;48.670;18.260;2024-02-26T06:52:17;12.27;;;7.15;;
49051;SDS011;34866;48.670;18.260;2024-02-26T06:54:46;11.48;;;6.18;;
49051;SDS011;34866;48.670;18.260;2024-02-26T06:57:13;13.85;;;8.02;;
49051;SDS011;34866;48.670;18.260;2024-02-26T06:59:39;16.15;;;8.10;;
49051;SDS011;34866;48.670;18.260;2024-02-26T07:02:05;17.25;;;9.50;;
49051;SDS011;34866;48.670;18.260;2024-02-26T07:04:31;27.30;;;11.35;;
49051;SDS011;34866;48.670;18.260;2024-02-26T07:06:58;17.45;;;8.88;;
49051;SDS011;34866;48.670;18.260;2024-02-26T07:09:24;13.05;;;7.55;;
49051;SDS011;34866;48.670;18.260;2024-02-26T07:11:51;15.20;;;8.25;;
49051;SDS011;34866;48.670;18.260;2024-02-26T07:14:17;24.85;;;8.82;;
49051;SDS011;34866;48.670;18.260;2024-02-26T07:16:43;16.17;;;8.82;;
49051;SDS011;34866;48.670;18.260;2024-02-26T07:19:09;17.00;;;8.23;;
49051;SDS011;34866;48.670;18.260;2024-02-26T07:21:35;17.42;;;8.23;;
49051;SDS011;34866;48.670;18.260;2024-02-26T07:24:01;14.55;;;8.13;;
49051;SDS011;34866;48.670;18.260;2024-02-26T07:26:27;16.17;;;8.15;;
49051;SDS011;34866;48.670;18.260;2024-02-26T07:28:55;17.60;;;8.60;;
49051;SDS011;34866;48.670;18.260;2024-02-26T07:31:21;17.23;;;7.90;;
49051;SDS011;34866;48.670;18.260;2024-02-26T07:33:49;15.05;;;7.70;;
49051;SDS011;34866;48.670;18.260;2024-02-26T07:36:16;22.63;;;9.43;;
49051;SDS011;34866;48.670;18.260;2024-02-26T07:38:42;18.38;;;8.88;;
49051;SDS011;34866;48.670;18.260;2024-02-26T07:41:08;22.27;;;9.15;;
49051;SDS011;34866;48.670;18.260;2024-02-26T07:43:34;29.38;;;9.13;;
49051;SDS011;34866;48.670;18.260;2024-02-26T07:46:00;24.98;;;8.77;;
49051;SDS011;34866;48.670;18.260;2024-02-26T07:48:26;24.85;;;10.02;;
49051;SDS011;34866;48.670;18.260;2024-02-26T07:50:52;26.85;;;9.55;;
49051;SDS011;34866;48.670;18.260;2024-02-26T07:53:18;24.08;;;10.95;;
49051;SDS011;34866;48.670;18.260;2024-02-26T07:55:45;26.38;;;9.57;;
49051;SDS011;34866;48.670;18.260;2024-02-26T07:58:11;28.73;;;9.30;;
49051;SDS011;34866;48.670;18.260;2024-02-26T08:00:37;27.80;;;10.30;;
49051;SDS011;34866;48.670;18.260;2024-02-26T08:03:03;25.92;;;9.93;;
49051;SDS011;34866;48.670;18.260;2024-02-26T08:05:29;41.10;;;9.25;;
49051;SDS011;34866;48.670;18.260;2024-02-26T08:07:55;21.67;;;7.85;;
49051;SDS011;34866;48.670;18.260;2024-02-26T08:10:21;23.38;;;8.38;;
49051;SDS011;34866;48.670;18.260;2024-02-26T08:12:47;17.50;;;7.80;;
49051;SDS011;34866;48.670;18.260;2024-02-26T08:15:22;23.67;;;9.18;;
49051;SDS011;34866;48.670;18.260;2024-02-26T08:17:48;19.55;;;9.35;;
49051;SDS011;34866;48.670;18.260;2024-02-26T08:20:14;19.73;;;8.07;;
49051;SDS011;34866;48.670;18.260;2024-02-26T08:22:41;16.50;;;7.43;;
49051;SDS011;34866;48.670;18.260;2024-02-26T08:25:07;19.52;;;8.07;;
49051;SDS011;34866;48.670;18.260;2024-02-26T08:27:35;13.32;;;6.50;;
49051;SDS011;34866;48.670;18.260;2024-02-26T08:30:00;11.35;;;5.15;;
49051;SDS011;34866;48.670;18.260;2024-02-26T08:32:26;10.73;;;4.97;;
49051;SDS011;34866;48.670;18.260;2024-02-26T08:34:52;14.40;;;4.55;;
49051;SDS011;34866;48.670;18.260;2024-02-26T08:37:18;5.80;;;3.20;;
49051;SDS011;34866;48.670;18.260;2024-02-26T08:39:44;6.40;;;3.22;;
49051;SDS011;34866;48.670;18.260;2024-02-26T08:42:11;4.55;;;2.17;;
49051;SDS011;34866;48.670;18.260;2024-02-26T08:44:39;5.45;;;2.30;;
49051;SDS011;34866;48.670;18.260;2024-02-26T08:47:04;3.72;;;1.90;;
49051;SDS011;34866;48.670;18.260;2024-02-26T08:49:33;7.40;;;2.47;;
49051;SDS011;34866;48.670;18.260;2024-02-26T08:51:58;4.28;;;2.08;;
49051;SDS011;34866;48.670;18.260;2024-02-26T08:54:25;3.63;;;1.70;;
49051;SDS011;34866;48.670;18.260;2024-02-26T08:56:51;3.40;;;1.90;;
49051;SDS011;34866;48.670;18.260;2024-02-26T08:59:18;4.05;;;2.15;;
49051;SDS011;34866;48.670;18.260;2024-02-26T09:01:47;3.13;;;1.73;;
49051;SDS011;34866;48.670;18.260;2024-02-26T09:04:13;3.05;;;1.25;;
49051;SDS011;34866;48.670;18.260;2024-02-26T09:06:38;4.40;;;1.27;;
49051;SDS011;34866;48.670;18.260;2024-02-26T09:09:04;5.90;;;1.83;;
49051;SDS011;34866;48.670;18.260;2024-02-26T09:11:30;3.42;;;1.65;;
49051;SDS011;34866;48.670;18.260;2024-02-26T09:13:56;4.75;;;1.50;;
49051;SDS011;34866;48.670;18.260;2024-02-26T09:16:22;3.38;;;1.58;;
49051;SDS011;34866;48.670;18.260;2024-02-26T09:18:47;3.30;;;1.58;;
49051;SDS011;34866;48.670;18.260;2024-02-26T09:21:13;3.30;;;1.85;;
49051;SDS011;34866;48.670;18.260;2024-02-26T09:23:39;5.03;;;2.22;;
49051;SDS011;34866;48.670;18.260;2024-02-26T09:26:05;5.07;;;2.08;;
49051;SDS011;34866;48.670;18.260;2024-02-26T09:28:31;4.00;;;2.00;;
49051;SDS011;34866;48.670;18.260;2024-02-26T09:31:03;4.28;;;2.03;;
49051;SDS011;34866;48.670;18.260;2024-02-26T09:33:29;5.95;;;2.17;;
49051;SDS011;34866;48.670;18.260;2024-02-26T09:35:55;4.50;;;2.15;;
49051;SDS011;34866;48.670;18.260;2024-02-26T09:38:21;5.18;;;2.67;;
49051;SDS011;34866;48.670;18.260;2024-02-26T09:40:47;6.15;;;2.22;;
49051;SDS011;34866;48.670;18.260;2024-02-26T09:43:14;3.75;;;1.90;;
49051;SDS011;34866;48.670;18.260;2024-02-26T09:45:42;4.88;;;2.33;;
49051;SDS011;34866;48.670;18.260;2024-02-26T09:48:09;5.57;;;2.63;;
49051;SDS011;34866;48.670;18.260;2024-02-26T09:50:37;4.22;;;2.17;;
49051;SDS011;34866;48.670;18.260;2024-02-26T09:53:06;6.18;;;3.10;;
49051;SDS011;34866;48.670;18.260;2024-02-26T09:55:35;5.53;;;2.55;;
49051;SDS011;34866;48.670;18.260;2024-02-26T09:58:01;10.68;;;2.95;;
49051;SDS011;34866;48.670;18.260;2024-02-26T10:00:29;5.30;;;2.40;;
49051;SDS011;34866;48.670;18.260;2024-02-26T10:02:59;6.75;;;2.90;;
49051;SDS011;34866;48.670;18.260;2024-02-26T10:05:29;8.27;;;3.20;;
49051;SDS011;34866;48.670;18.260;2024-02-26T10:07:56;7.05;;;3.42;;
49051;SDS011;34866;48.670;18.260;2024-02-26T10:10:23;8.00;;;3.13;;
49051;SDS011;34866;48.670;18.260;2024-02-26T10:12:49;7.47;;;3.03;;
49051;SDS011;34866;48.670;18.260;2024-02-26T10:15:15;8.15;;;2.95;;
49051;SDS011;34866;48.670;18.260;2024-02-26T10:17:41;6.53;;;3.20;;
49051;SDS011;34866;48.670;18.260;2024-02-26T10:20:13;4.93;;;2.58;;
49051;SDS011;34866;48.670;18.260;2024-02-26T10:22:42;5.50;;;2.40;;
49051;SDS011;34866;48.670;18.260;2024-02-26T10:25:08;5.07;;;2.33;;
49051;SDS011;34866;48.670;18.260;2024-02-26T10:27:34;5.63;;;2.35;;
49051;SDS011;34866;48.670;18.260;2024-02-26T10:30:05;5.63;;;2.33;;
49051;SDS011;34866;48.670;18.260;2024-02-26T10:32:47;5.28;;;2.20;;
49051;SDS011;34866;48.670;18.260;2024-02-26T10:35:16;6.18;;;2.65;;
49051;SDS011;34866;48.670;18.260;2024-02-26T10:37:46;5.15;;;2.30;;
49051;SDS011;34866;48.670;18.260;2024-02-26T10:40:13;5.07;;;2.33;;
49051;SDS011;34866;48.670;18.260;2024-02-26T10:42:39;5.00;;;2.38;;
49051;SDS011;34866;48.670;18.260;2024-02-26T10:45:06;4.78;;;2.30;;
49051;SDS011;34866;48.670;18.260;2024-02-26T10:47:34;5.72;;;2.70;;
49051;SDS011;34866;48.670;18.260;2024-02-26T10:50:03;6.28;;;2.35;;
49051;SDS011;34866;48.670;18.260;2024-02-26T10:52:32;5.20;;;2.30;;
49051;SDS011;34866;48.670;18.260;2024-02-26T10:55:02;4.75;;;2.42;;
49051;SDS011;34866;48.670;18.260;2024-02-26T10:57:40;6.47;;;2.80;;
49051;SDS011;34866;48.670;18.260;2024-02-26T11:00:07;4.82;;;2.30;;
49051;SDS011;34866;48.670;18.260;2024-02-26T11:02:37;6.25;;;2.55;;
49051;SDS011;34866;48.670;18.260;2024-02-26T11:05:05;5.60;;;2.38;;
49051;SDS011;34866;48.670;18.260;2024-02-26T11:07:35;5.70;;;2.60;;
49051;SDS011;34866;48.670;18.260;2024-02-26T11:10:04;3.90;;;1.85;;
49051;SDS011;34866;48.670;18.260;2024-02-26T11:12:34;6.28;;;2.72;;
49051;SDS011;34866;48.670;18.260;2024-02-26T11:15:02;8.93;;;2.55;;
49051;SDS011;34866;48.670;18.260;2024-02-26T11:17:28;7.75;;;2.85;;
49051;SDS011;34866;48.670;18.260;2024-02-26T11:19:56;4.53;;;2.22;;
49051;SDS011;34866;48.670;18.260;2024-02-26T11:22:26;7.90;;;2.67;;
49051;SDS011;34866;48.670;18.260;2024-02-26T11:24:54;6.45;;;2.92;;
49051;SDS011;34866;48.670;18.260;2024-02-26T11:27:26;5.15;;;2.50;;
49051;SDS011;34866;48.670;18.260;2024-02-26T11:29:57;6.18;;;3.22;;
49051;SDS011;34866;48.670;18.260;2024-02-26T11:32:26;5.68;;;2.78;;
49051;SDS011;34866;48.670;18.260;2024-02-26T11:34:53;6.22;;;2.40;;
49051;SDS011;34866;48.670;18.260;2024-02-26T11:37:19;5.50;;;2.65;;
49051;SDS011;34866;48.670;18.260;2024-02-26T11:39:45;5.88;;;2.30;;
49051;SDS011;34866;48.670;18.260;2024-02-26T11:42:14;7.82;;;3.15;;
49051;SDS011;34866;48.670;18.260;2024-02-26T11:44:41;5.55;;;2.60;;
49051;SDS011;34866;48.670;18.260;2024-02-26T11:49:35;5.07;;;2.58;;
49051;SDS011;34866;48.670;18.260;2024-02-26T11:52:02;8.68;;;2.65;;
49051;SDS011;34866;48.670;18.260;2024-02-26T11:57:25;5.80;;;2.50;;
49051;SDS011;34866;48.670;18.260;2024-02-26T12:00:10;5.75;;;2.85;;
49051;SDS011;34866;48.670;18.260;2024-02-26T12:05:22;6.53;;;3.42;;
49051;SDS011;34866;48.670;18.260;2024-02-26T12:07:53;5.85;;;2.65;;
49051;SDS011;34866;48.670;18.260;2024-02-26T12:10:23;5.93;;;3.10;;
49051;SDS011;34866;48.670;18.260;2024-02-26T12:12:59;6.43;;;2.90;;
49051;SDS011;34866;48.670;18.260;2024-02-26T12:15:34;7.60;;;3.30;;
49051;SDS011;34866;48.670;18.260;2024-02-26T12:18:03;6.78;;;3.20;;
49051;SDS011;34866;48.670;18.260;2024-02-26T12:20:30;7.38;;;3.63;;
49051;SDS011;34866;48.670;18.260;2024-02-26T12:22:56;8.68;;;4.43;;
49051;SDS011;34866;48.670;18.260;2024-02-26T12:25:26;6.75;;;3.53;;
49051;SDS011;34866;48.670;18.260;2024-02-26T12:27:53;7.40;;;3.35;;
49051;SDS011;34866;48.670;18.260;2024-02-26T12:30:19;6.75;;;3.30;;
49051;SDS011;34866;48.670;18.260;2024-02-26T12:32:46;8.00;;;3.78;;
49051;SDS011;34866;48.670;18.260;2024-02-26T12:35:13;8.25;;;4.18;;
49051;SDS011;34866;48.670;18.260;2024-02-26T12:37:40;6.65;;;3.65;;
49051;SDS011;34866;48.670;18.260;2024-02-26T12:40:06;8.02;;;3.45;;
49051;SDS011;34866;48.670;18.260;2024-02-26T12:42:34;8.52;;;3.95;;
49051;SDS011;34866;48.670;18.260;2024-02-26T12:45:06;7.25;;;3.58;;
49051;SDS011;34866;48.670;18.260;2024-02-26T12:50:05;8.00;;;3.97;;
49051;SDS011;34866;48.670;18.260;2024-02-26T12:52:35;6.80;;;3.38;;
49051;SDS011;34866;48.670;18.260;2024-02-26T12:55:04;10.27;;;4.03;;
49051;SDS011;34866;48.670;18.260;2024-02-26T12:57:32;8.35;;;4.07;;
49051;SDS011;34866;48.670;18.260;2024-02-26T13:00:03;8.60;;;3.35;;
49051;SDS011;34866;48.670;18.260;2024-02-26T13:02:32;7.78;;;3.92;;
49051;SDS011;34866;48.670;18.260;2024-02-26T13:04:59;7.50;;;3.78;;
49051;SDS011;34866;48.670;18.260;2024-02-26T13:07:26;7.28;;;3.88;;
49051;SDS011;34866;48.670;18.260;2024-02-26T13:09:52;6.82;;;3.72;;
49051;SDS011;34866;48.670;18.260;2024-02-26T13:12:18;10.27;;;4.18;;
49051;SDS011;34866;48.670;18.260;2024-02-26T13:14:44;8.93;;;3.95;;
49051;SDS011;34866;48.670;18.260;2024-02-26T13:17:11;10.15;;;4.13;;
49051;SDS011;34866;48.670;18.260;2024-02-26T13:19:37;8.30;;;4.72;;
49051;SDS011;34866;48.670;18.260;2024-02-26T13:22:04;9.27;;;3.90;;
49051;SDS011;34866;48.670;18.260;2024-02-26T13:24:31;8.50;;;4.63;;
49051;SDS011;34866;48.670;18.260;2024-02-26T13:26:57;17.42;;;4.72;;
49051;SDS011;34866;48.670;18.260;2024-02-26T13:29:23;8.65;;;4.47;;
49051;SDS011;34866;48.670;18.260;2024-02-26T13:31:55;10.48;;;4.80;;
49051;SDS011;34866;48.670;18.260;2024-02-26T13:34:26;10.15;;;5.03;;
49051;SDS011;34866;48.670;18.260;2024-02-26T13:36:53;11.48;;;5.38;;
49051;SDS011;34866;48.670;18.260;2024-02-26T13:39:26;13.07;;;4.30;;
49051;SDS011;34866;48.670;18.260;2024-02-26T13:41:54;7.72;;;4.03;;
49051;SDS011;34866;48.670;18.260;2024-02-26T13:44:20;9.00;;;4.03;;
49051;SDS011;34866;48.670;18.260;2024-02-26T13:46:46;10.95;;;4.72;;
49051;SDS011;34866;48.670;18.260;2024-02-26T13:49:12;11.25;;;4.43;;
49051;SDS011;34866;48.670;18.260;2024-02-26T13:51:38;9.27;;;4.55;;
49051;SDS011;34866;48.670;18.260;2024-02-26T13:54:05;8.40;;;4.22;;
49051;SDS011;34866;48.670;18.260;2024-02-26T13:56:32;9.30;;;4.82;;
49051;SDS011;34866;48.670;18.260;2024-02-26T13:58:58;10.48;;;4.75;;
49051;SDS011;34866;48.670;18.260;2024-02-26T14:01:24;11.45;;;4.93;;
49051;SDS011;34866;48.670;18.260;2024-02-26T14:03:50;10.82;;;4.85;;
49051;SDS011;34866;48.670;18.260;2024-02-26T14:06:16;11.32;;;4.40;;
49051;SDS011;34866;48.670;18.260;2024-02-26T14:08:42;8.95;;;4.50;;
49051;SDS011;34866;48.670;18.260;2024-02-26T14:11:08;11.93;;;4.97;;
49051;SDS011;34866;48.670;18.260;2024-02-26T14:13:33;9.95;;;4.95;;
49051;SDS011;34866;48.670;18.260;2024-02-26T14:15:59;10.82;;;4.85;;
49051;SDS011;34866;48.670;18.260;2024-02-26T14:18:25;9.30;;;5.10;;
49051;SDS011;34866;48.670;18.260;2024-02-26T14:20:52;9.48;;;4.55;;
49051;SDS011;34866;48.670;18.260;2024-02-26T14:23:18;13.48;;;5.95;;
49051;SDS011;34866;48.670;18.260;2024-02-26T14:25:43;11.18;;;5.45;;
49051;SDS011;34866;48.670;18.260;2024-02-26T14:28:09;16.40;;;6.32;;
49051;SDS011;34866;48.670;18.260;2024-02-26T14:30:34;10.45;;;5.68;;
49051;SDS011;34866;48.670;18.260;2024-02-26T14:33:00;10.98;;;5.50;;
49051;SDS011;34866;48.670;18.260;2024-02-26T14:35:26;17.90;;;5.47;;
49051;SDS011;34866;48.670;18.260;2024-02-26T14:37:51;14.98;;;6.93;;